sensor_id;sensor_type;location;lat;lon;timestamp;pressure;altitude;pressure_sealevel;temperature
81885;BMP280;71340;55.154;30.266;2023-08-01T00:01:45;98695.16;;;18.08
81885;BMP280;71340;55.154;30.266;2023-08-01T00:04:10;98697.25;;;18.17
81885;BMP280;71340;55.154;30.266;2023-08-01T00:06:36;98697.25;;;18.17
81885;BMP280;71340;55.154;30.266;2023-08-01T00:09:01;98689.84;;;18.08
81885;BMP280;71340;55.154;30.266;2023-08-01T00:11:26;98688.72;;;17.90
81885;BMP280;71340;55.154;30.266;2023-08-01T00:13:52;98694.00;;;17.74
81885;BMP280;71340;55.154;30.266;2023-08-01T00:16:17;98690.78;;;17.63
81885;BMP280;71340;55.154;30.266;2023-08-01T00:18:42;98689.81;;;17.73
81885;BMP280;71340;55.154;30.266;2023-08-01T00:21:08;98691.53;;;17.83
81885;BMP280;71340;55.154;30.266;2023-08-01T00:23:36;98688.34;;;17.91
81885;BMP280;71340;55.154;30.266;2023-08-01T00:26:02;98688.34;;;17.91
81885;BMP280;71340;55.154;30.266;2023-08-01T00:28:28;98692.38;;;17.96
81885;BMP280;71340;55.154;30.266;2023-08-01T00:31:04;98687.72;;;17.84
81885;BMP280;71340;55.154;30.266;2023-08-01T00:33:30;98693.16;;;17.96
81885;BMP280;71340;55.154;30.266;2023-08-01T00:35:55;98690.44;;;18.00
81885;BMP280;71340;55.154;30.266;2023-08-01T00:38:21;98690.44;;;18.00
81885;BMP280;71340;55.154;30.266;2023-08-01T00:40:46;98687.78;;;18.00
81885;BMP280;71340;55.154;30.266;2023-08-01T00:43:12;98691.09;;;18.04
81885;BMP280;71340;55.154;30.266;2023-08-01T00:45:37;98687.69;;;18.03
81885;BMP280;71340;55.154;30.266;2023-08-01T00:48:03;98692.72;;;17.98
81885;BMP280;71340;55.154;30.266;2023-08-01T00:50:29;98698.53;;;17.93
81885;BMP280;71340;55.154;30.266;2023-08-01T00:52:54;98695.00;;;17.80
81885;BMP280;71340;55.154;30.266;2023-08-01T00:55:21;98691.34;;;17.74
81885;BMP280;71340;55.154;30.266;2023-08-01T00:57:47;98697.78;;;17.73
81885;BMP280;71340;55.154;30.266;2023-08-01T01:00:13;98691.09;;;17.65
81885;BMP280;71340;55.154;30.266;2023-08-01T01:02:38;98694.91;;;17.64
81885;BMP280;71340;55.154;30.266;2023-08-01T01:05:04;98695.41;;;17.58
81885;BMP280;71340;55.154;30.266;2023-08-01T01:07:31;98687.09;;;17.56
81885;BMP280;71340;55.154;30.266;2023-08-01T01:09:57;98688.72;;;17.50
81885;BMP280;71340;55.154;30.266;2023-08-01T01:12:23;98677.41;;;17.50
81885;BMP280;71340;55.154;30.266;2023-08-01T01:14:48;98697.38;;;17.54
81885;BMP280;71340;55.154;30.266;2023-08-01T01:17:13;98700.69;;;17.58
81885;BMP280;71340;55.154;30.266;2023-08-01T01:19:39;98698.06;;;17.58
81885;BMP280;71340;55.154;30.266;2023-08-01T01:22:05;98696.47;;;17.61
81885;BMP280;71340;55.154;30.266;2023-08-01T01:24:32;98694.56;;;17.62
81885;BMP280;71340;55.154;30.266;2023-08-01T01:26:58;98709.63;;;17.68
81885;BMP280;71340;55.154;30.266;2023-08-01T01:29:26;98694.19;;;17.63
81885;BMP280;71340;55.154;30.266;2023-08-01T01:31:52;98704.34;;;17.65
81885;BMP280;71340;55.154;30.266;2023-08-01T01:34:18;98707.44;;;17.63
81885;BMP280;71340;55.154;30.266;2023-08-01T01:36:43;98708.59;;;17.62
81885;BMP280;71340;55.154;30.266;2023-08-01T01:39:09;98715.44;;;17.59
81885;BMP280;71340;55.154;30.266;2023-08-01T01:41:34;98713.78;;;17.46
81885;BMP280;71340;55.154;30.266;2023-08-01T01:43:59;98712.41;;;17.38
81885;BMP280;71340;55.154;30.266;2023-08-01T01:46:25;98713.88;;;17.42
81885;BMP280;71340;55.154;30.266;2023-08-01T01:48:50;98714.97;;;17.45
81885;BMP280;71340;55.154;30.266;2023-08-01T01:51:16;98705.03;;;17.26
81885;BMP280;71340;55.154;30.266;2023-08-01T01:53:41;98706.72;;;17.16
81885;BMP280;71340;55.154;30.266;2023-08-01T01:56:07;98702.97;;;17.14
81885;BMP280;71340;55.154;30.266;2023-08-01T01:58:32;98707.03;;;17.22
81885;BMP280;71340;55.154;30.266;2023-08-01T02:00:58;98703.22;;;17.23
81885;BMP280;71340;55.154;30.266;2023-08-01T02:03:23;98698.19;;;17.28
81885;BMP280;71340;55.154;30.266;2023-08-01T02:05:48;98702.34;;;17.29
81885;BMP280;71340;55.154;30.266;2023-08-01T02:08:14;98703.06;;;17.33
81885;BMP280;71340;55.154;30.266;2023-08-01T02:10:39;98713.94;;;17.39
81885;BMP280;71340;55.154;30.266;2023-08-01T02:13:04;98712.34;;;17.41
81885;BMP280;71340;55.154;30.266;2023-08-01T02:15:30;98707.06;;;17.41
81885;BMP280;71340;55.154;30.266;2023-08-01T02:17:56;98701.06;;;17.37
81885;BMP280;71340;55.154;30.266;2023-08-01T02:20:22;98712.34;;;17.41
81885;BMP280;71340;55.154;30.266;2023-08-01T02:22:47;98711.13;;;17.46
81885;BMP280;71340;55.154;30.266;2023-08-01T02:25:12;98703.34;;;17.39
81885;BMP280;71340;55.154;30.266;2023-08-01T02:27:38;98706.25;;;17.44
81885;BMP280;71340;55.154;30.266;2023-08-01T02:30:03;98694.03;;;17.50
81885;BMP280;71340;55.154;30.266;2023-08-01T02:32:30;98706.47;;;17.53
81885;BMP280;71340;55.154;30.266;2023-08-01T02:34:56;98701.50;;;17.55
81885;BMP280;71340;55.154;30.266;2023-08-01T02:37:21;98704.31;;;17.48
81885;BMP280;71340;55.154;30.266;2023-08-01T02:39:46;98706.84;;;17.52
81885;BMP280;71340;55.154;30.266;2023-08-01T02:42:12;98699.00;;;17.48
81885;BMP280;71340;55.154;30.266;2023-08-01T02:44:37;98710.25;;;17.52
81885;BMP280;71340;55.154;30.266;2023-08-01T02:47:02;98709.88;;;17.54
81885;BMP280;71340;55.154;30.266;2023-08-01T02:49:28;98707.56;;;17.56
81885;BMP280;71340;55.154;30.266;2023-08-01T02:51:53;98704.63;;;17.50
81885;BMP280;71340;55.154;30.266;2023-08-01T02:54:18;98699.66;;;17.52
81885;BMP280;71340;55.154;30.266;2023-08-01T02:56:44;98703.75;;;17.57
81885;BMP280;71340;55.154;30.266;2023-08-01T02:59:09;98706.69;;;17.63
81885;BMP280;71340;55.154;30.266;2023-08-01T03:01:35;98711.63;;;17.60
81885;BMP280;71340;55.154;30.266;2023-08-01T03:04:05;98706.28;;;17.64
81885;BMP280;71340;55.154;30.266;2023-08-01T03:06:32;98707.06;;;17.61
81885;BMP280;71340;55.154;30.266;2023-08-01T03:08:57;98707.47;;;17.59
81885;BMP280;71340;55.154;30.266;2023-08-01T03:11:23;98703.63;;;17.64
81885;BMP280;71340;55.154;30.266;2023-08-01T03:13:48;98703.19;;;17.69
81885;BMP280;71340;55.154;30.266;2023-08-01T03:16:13;98694.75;;;17.74
81885;BMP280;71340;55.154;30.266;2023-08-01T03:18:39;98706.41;;;17.77
81885;BMP280;71340;55.154;30.266;2023-08-01T03:21:04;98700.28;;;17.80
81885;BMP280;71340;55.154;30.266;2023-08-01T03:23:30;98702.63;;;17.78
81885;BMP280;71340;55.154;30.266;2023-08-01T03:25:55;98699.50;;;17.83
81885;BMP280;71340;55.154;30.266;2023-08-01T03:28:21;98702.72;;;17.90
81885;BMP280;71340;55.154;30.266;2023-08-01T03:30:46;98694.97;;;17.99
81885;BMP280;71340;55.154;30.266;2023-08-01T03:33:15;98708.38;;;18.12
81885;BMP280;71340;55.154;30.266;2023-08-01T03:35:40;98708.56;;;18.21
81885;BMP280;71340;55.154;30.266;2023-08-01T03:38:06;98714.59;;;18.21
81885;BMP280;71340;55.154;30.266;2023-08-01T03:40:31;98726.50;;;18.33
81885;BMP280;71340;55.154;30.266;2023-08-01T03:42:56;98715.25;;;18.45
81885;BMP280;71340;55.154;30.266;2023-08-01T03:45:22;98719.88;;;18.57
81885;BMP280;71340;55.154;30.266;2023-08-01T03:47:47;98713.53;;;18.71
81885;BMP280;71340;55.154;30.266;2023-08-01T03:50:12;98710.44;;;18.72
81885;BMP280;71340;55.154;30.266;2023-08-01T03:52:39;98710.69;;;18.61
81885;BMP280;71340;55.154;30.266;2023-08-01T03:55:04;98712.66;;;18.41
81885;BMP280;71340;55.154;30.266;2023-08-01T03:57:30;98716.06;;;18.42
81885;BMP280;71340;55.154;30.266;2023-08-01T03:59:58;98726.50;;;18.33
81885;BMP280;71340;55.154;30.266;2023-08-01T04:02:24;98730.16;;;18.39
81885;BMP280;71340;55.154;30.266;2023-08-01T04:04:49;98725.13;;;18.25
81885;BMP280;71340;55.154;30.266;2023-08-01T04:07:14;98724.72;;;18.26
81885;BMP280;71340;55.154;30.266;2023-08-01T04:09:40;98729.78;;;18.21
81885;BMP280;71340;55.154;30.266;2023-08-01T04:12:05;98726.81;;;18.19
81885;BMP280;71340;55.154;30.266;2023-08-01T04:14:32;98731.25;;;18.22
81885;BMP280;71340;55.154;30.266;2023-08-01T04:16:57;98725.31;;;18.34
81885;BMP280;71340;55.154;30.266;2023-08-01T04:19:23;98728.78;;;18.31
81885;BMP280;71340;55.154;30.266;2023-08-01T04:21:48;98737.38;;;18.38
81885;BMP280;71340;55.154;30.266;2023-08-01T04:24:14;98720.03;;;18.50
81885;BMP280;71340;55.154;30.266;2023-08-01T04:26:39;98737.28;;;18.58
81885;BMP280;71340;55.154;30.266;2023-08-01T04:29:04;98725.47;;;18.63
81885;BMP280;71340;55.154;30.266;2023-08-01T04:31:30;98731.63;;;18.76
81885;BMP280;71340;55.154;30.266;2023-08-01T04:33:55;98731.19;;;18.93
81885;BMP280;71340;55.154;30.266;2023-08-01T04:36:21;98726.69;;;18.90
81885;BMP280;71340;55.154;30.266;2023-08-01T04:38:47;98730.59;;;19.02
81885;BMP280;71340;55.154;30.266;2023-08-01T04:41:12;98732.16;;;18.99
81885;BMP280;71340;55.154;30.266;2023-08-01T04:43:37;98736.97;;;19.04
81885;BMP280;71340;55.154;30.266;2023-08-01T04:46:03;98736.81;;;18.95
81885;BMP280;71340;55.154;30.266;2023-08-01T04:48:28;98734.84;;;18.99
81885;BMP280;71340;55.154;30.266;2023-08-01T04:50:53;98730.91;;;19.04
81885;BMP280;71340;55.154;30.266;2023-08-01T04:53:18;98737.38;;;19.19
81885;BMP280;71340;55.154;30.266;2023-08-01T04:55:44;98737.91;;;19.30
81885;BMP280;71340;55.154;30.266;2023-08-01T04:58:09;98733.53;;;19.36
81885;BMP280;71340;55.154;30.266;2023-08-01T05:00:34;98734.25;;;19.52
81885;BMP280;71340;55.154;30.266;2023-08-01T05:03:00;98728.59;;;19.50
81885;BMP280;71340;55.154;30.266;2023-08-01T05:05:26;98719.31;;;19.71
81885;BMP280;71340;55.154;30.266;2023-08-01T05:07:51;98733.22;;;19.62
81885;BMP280;71340;55.154;30.266;2023-08-01T05:10:16;98725.59;;;19.64
81885;BMP280;71340;55.154;30.266;2023-08-01T05:12:42;98722.00;;;19.84
81885;BMP280;71340;55.154;30.266;2023-08-01T05:15:07;98729.22;;;19.70
81885;BMP280;71340;55.154;30.266;2023-08-01T05:17:33;98718.16;;;19.72
81885;BMP280;71340;55.154;30.266;2023-08-01T05:19:58;98722.84;;;19.81
81885;BMP280;71340;55.154;30.266;2023-08-01T05:22:24;98725.56;;;20.18
81885;BMP280;71340;55.154;30.266;2023-08-01T05:24:49;98718.84;;;20.39
81885;BMP280;71340;55.154;30.266;2023-08-01T05:27:14;98729.16;;;20.62
81885;BMP280;71340;55.154;30.266;2023-08-01T05:29:40;98721.91;;;20.75
81885;BMP280;71340;55.154;30.266;2023-08-01T05:32:05;98707.00;;;20.77
81885;BMP280;71340;55.154;30.266;2023-08-01T05:34:31;98701.75;;;20.86
81885;BMP280;71340;55.154;30.266;2023-08-01T05:36:56;98710.00;;;21.14
81885;BMP280;71340;55.154;30.266;2023-08-01T05:39:21;98713.38;;;21.36
81885;BMP280;71340;55.154;30.266;2023-08-01T05:41:47;98703.44;;;21.49
81885;BMP280;71340;55.154;30.266;2023-08-01T05:44:12;98697.50;;;21.32
81885;BMP280;71340;55.154;30.266;2023-08-01T05:46:37;98711.03;;;21.38
81885;BMP280;71340;55.154;30.266;2023-08-01T05:49:03;98706.81;;;21.49
81885;BMP280;71340;55.154;30.266;2023-08-01T05:51:28;98705.94;;;21.52
81885;BMP280;71340;55.154;30.266;2023-08-01T05:53:53;98707.81;;;21.64
81885;BMP280;71340;55.154;30.266;2023-08-01T05:56:19;98703.34;;;21.61
81885;BMP280;71340;55.154;30.266;2023-08-01T05:58:44;98706.31;;;21.63
81885;BMP280;71340;55.154;30.266;2023-08-01T06:01:14;98702.16;;;21.84
81885;BMP280;71340;55.154;30.266;2023-08-01T06:03:39;98711.84;;;21.99
81885;BMP280;71340;55.154;30.266;2023-08-01T06:06:04;98702.88;;;21.84
81885;BMP280;71340;55.154;30.266;2023-08-01T06:08:30;98696.09;;;21.62
81885;BMP280;71340;55.154;30.266;2023-08-01T06:10:55;98697.34;;;21.48
81885;BMP280;71340;55.154;30.266;2023-08-01T06:13:21;98692.88;;;21.45
81885;BMP280;71340;55.154;30.266;2023-08-01T06:15:46;98690.63;;;21.44
81885;BMP280;71340;55.154;30.266;2023-08-01T06:18:12;98686.34;;;21.46
81885;BMP280;71340;55.154;30.266;2023-08-01T06:20:37;98689.41;;;21.57
81885;BMP280;71340;55.154;30.266;2023-08-01T06:23:03;98708.78;;;21.79
81885;BMP280;71340;55.154;30.266;2023-08-01T06:25:28;98703.81;;;21.99
81885;BMP280;71340;55.154;30.266;2023-08-01T06:27:54;98714.31;;;22.24
81885;BMP280;71340;55.154;30.266;2023-08-01T06:30:19;98707.94;;;22.40
81885;BMP280;71340;55.154;30.266;2023-08-01T06:32:44;98701.00;;;22.52
81885;BMP280;71340;55.154;30.266;2023-08-01T06:35:10;98702.81;;;22.73
81885;BMP280;71340;55.154;30.266;2023-08-01T06:37:35;98696.59;;;22.76
81885;BMP280;71340;55.154;30.266;2023-08-01T06:40:01;98709.97;;;22.76
81885;BMP280;71340;55.154;30.266;2023-08-01T06:42:27;98706.66;;;22.81
81885;BMP280;71340;55.154;30.266;2023-08-01T06:44:52;98711.75;;;22.97
81885;BMP280;71340;55.154;30.266;2023-08-01T06:47:17;98712.16;;;23.22
81885;BMP280;71340;55.154;30.266;2023-08-01T06:49:43;98720.91;;;23.32
81885;BMP280;71340;55.154;30.266;2023-08-01T06:52:08;98712.28;;;23.37
81885;BMP280;71340;55.154;30.266;2023-08-01T06:54:34;98704.88;;;23.32
81885;BMP280;71340;55.154;30.266;2023-08-01T06:56:59;98712.38;;;23.60
81885;BMP280;71340;55.154;30.266;2023-08-01T06:59:25;98710.94;;;23.50
81885;BMP280;71340;55.154;30.266;2023-08-01T07:01:51;98707.31;;;23.62
81885;BMP280;71340;55.154;30.266;2023-08-01T07:04:16;98703.78;;;23.56
81885;BMP280;71340;55.154;30.266;2023-08-01T07:06:42;98705.09;;;23.61
81885;BMP280;71340;55.154;30.266;2023-08-01T07:09:07;98706.47;;;23.89
81885;BMP280;71340;55.154;30.266;2023-08-01T07:11:33;98702.97;;;24.07
81885;BMP280;71340;55.154;30.266;2023-08-01T07:13:58;98701.25;;;24.27
81885;BMP280;71340;55.154;30.266;2023-08-01T07:16:24;98699.94;;;24.23
81885;BMP280;71340;55.154;30.266;2023-08-01T07:18:49;98704.53;;;23.99
81885;BMP280;71340;55.154;30.266;2023-08-01T07:21:16;98707.72;;;24.35
81885;BMP280;71340;55.154;30.266;2023-08-01T07:23:42;98705.44;;;24.52
81885;BMP280;71340;55.154;30.266;2023-08-01T07:26:08;98708.63;;;24.32
81885;BMP280;71340;55.154;30.266;2023-08-01T07:28:33;98714.56;;;24.60
81885;BMP280;71340;55.154;30.266;2023-08-01T07:31:00;98711.91;;;24.36
81885;BMP280;71340;55.154;30.266;2023-08-01T07:33:25;98713.41;;;24.37
81885;BMP280;71340;55.154;30.266;2023-08-01T07:35:51;98712.63;;;24.60
81885;BMP280;71340;55.154;30.266;2023-08-01T07:38:16;98706.78;;;24.85
81885;BMP280;71340;55.154;30.266;2023-08-01T07:40:42;98707.50;;;24.71
81885;BMP280;71340;55.154;30.266;2023-08-01T07:43:07;98704.06;;;24.71
81885;BMP280;71340;55.154;30.266;2023-08-01T07:45:33;98713.72;;;24.92
81885;BMP280;71340;55.154;30.266;2023-08-01T07:48:00;98702.53;;;24.93
81885;BMP280;71340;55.154;30.266;2023-08-01T07:50:26;98695.63;;;25.01
81885;BMP280;71340;55.154;30.266;2023-08-01T07:52:51;98697.19;;;25.37
81885;BMP280;71340;55.154;30.266;2023-08-01T07:55:16;98699.22;;;25.57
81885;BMP280;71340;55.154;30.266;2023-08-01T07:57:43;98701.63;;;25.55
81885;BMP280;71340;55.154;30.266;2023-08-01T08:00:10;98706.09;;;25.43
81885;BMP280;71340;55.154;30.266;2023-08-01T08:02:36;98708.75;;;25.58
81885;BMP280;71340;55.154;30.266;2023-08-01T08:05:02;98704.84;;;25.44
81885;BMP280;71340;55.154;30.266;2023-08-01T08:07:28;98707.59;;;25.79
81885;BMP280;71340;55.154;30.266;2023-08-01T08:09:53;98702.78;;;26.03
81885;BMP280;71340;55.154;30.266;2023-08-01T08:12:21;98700.34;;;25.85
81885;BMP280;71340;55.154;30.266;2023-08-01T08:14:46;98709.63;;;25.84
81885;BMP280;71340;55.154;30.266;2023-08-01T08:17:12;98697.41;;;26.03
81885;BMP280;71340;55.154;30.266;2023-08-01T08:19:37;98695.59;;;25.60
81885;BMP280;71340;55.154;30.266;2023-08-01T08:22:03;98697.41;;;25.83
81885;BMP280;71340;55.154;30.266;2023-08-01T08:24:28;98696.31;;;25.60
81885;BMP280;71340;55.154;30.266;2023-08-01T08:26:54;98697.66;;;25.50
81885;BMP280;71340;55.154;30.266;2023-08-01T08:29:19;98687.00;;;25.56
81885;BMP280;71340;55.154;30.266;2023-08-01T08:31:44;98683.03;;;25.86
81885;BMP280;71340;55.154;30.266;2023-08-01T08:34:10;98677.94;;;25.53
81885;BMP280;71340;55.154;30.266;2023-08-01T08:36:35;98675.91;;;25.48
81885;BMP280;71340;55.154;30.266;2023-08-01T08:39:00;98686.88;;;25.65
81885;BMP280;71340;55.154;30.266;2023-08-01T08:41:28;98669.41;;;25.55
81885;BMP280;71340;55.154;30.266;2023-08-01T08:43:56;98680.44;;;25.77
81885;BMP280;71340;55.154;30.266;2023-08-01T08:46:27;98677.28;;;26.13
81885;BMP280;71340;55.154;30.266;2023-08-01T08:48:54;98680.63;;;26.28
81885;BMP280;71340;55.154;30.266;2023-08-01T08:51:21;98667.81;;;26.37
81885;BMP280;71340;55.154;30.266;2023-08-01T08:53:46;98670.97;;;26.61
81885;BMP280;71340;55.154;30.266;2023-08-01T08:56:12;98673.16;;;26.83
81885;BMP280;71340;55.154;30.266;2023-08-01T08:58:39;98671.59;;;27.02
81885;BMP280;71340;55.154;30.266;2023-08-01T09:01:06;98663.34;;;27.11
81885;BMP280;71340;55.154;30.266;2023-08-01T09:03:34;98675.50;;;27.01
81885;BMP280;71340;55.154;30.266;2023-08-01T09:06:04;98668.34;;;26.67
81885;BMP280;71340;55.154;30.266;2023-08-01T09:08:35;98667.09;;;26.88
81885;BMP280;71340;55.154;30.266;2023-08-01T09:11:01;98661.59;;;26.77
81885;BMP280;71340;55.154;30.266;2023-08-01T09:13:26;98663.16;;;26.89
81885;BMP280;71340;55.154;30.266;2023-08-01T09:15:52;98666.59;;;26.89
81885;BMP280;71340;55.154;30.266;2023-08-01T09:18:18;98667.03;;;26.57
81885;BMP280;71340;55.154;30.266;2023-08-01T09:20:45;98663.81;;;26.78
81885;BMP280;71340;55.154;30.266;2023-08-01T09:23:11;98663.19;;;26.63
81885;BMP280;71340;55.154;30.266;2023-08-01T09:25:36;98672.84;;;27.07
81885;BMP280;71340;55.154;30.266;2023-08-01T09:28:02;98672.50;;;27.25
81885;BMP280;71340;55.154;30.266;2023-08-01T09:30:27;98671.41;;;27.42
81885;BMP280;71340;55.154;30.266;2023-08-01T09:32:57;98670.69;;;27.42
81885;BMP280;71340;55.154;30.266;2023-08-01T09:35:24;98664.75;;;27.01
81885;BMP280;71340;55.154;30.266;2023-08-01T09:37:50;98663.31;;;27.06
81885;BMP280;71340;55.154;30.266;2023-08-01T09:40:15;98670.75;;;27.16
81885;BMP280;71340;55.154;30.266;2023-08-01T09:42:45;98659.75;;;27.56
81885;BMP280;71340;55.154;30.266;2023-08-01T09:45:17;98658.81;;;27.23
81885;BMP280;71340;55.154;30.266;2023-08-01T09:47:44;98665.22;;;27.67
81885;BMP280;71340;55.154;30.266;2023-08-01T09:50:10;98668.69;;;27.37
81885;BMP280;71340;55.154;30.266;2023-08-01T09:52:36;98658.41;;;27.35
81885;BMP280;71340;55.154;30.266;2023-08-01T09:55:02;98659.03;;;27.19
81885;BMP280;71340;55.154;30.266;2023-08-01T09:57:29;98647.13;;;27.31
81885;BMP280;71340;55.154;30.266;2023-08-01T09:59:59;98652.56;;;27.84
81885;BMP280;71340;55.154;30.266;2023-08-01T10:02:25;98646.34;;;28.31
81885;BMP280;71340;55.154;30.266;2023-08-01T10:04:57;98630.19;;;28.42
81885;BMP280;71340;55.154;30.266;2023-08-01T10:07:29;98638.50;;;28.28
81885;BMP280;71340;55.154;30.266;2023-08-01T10:09:58;98645.16;;;28.43
81885;BMP280;71340;55.154;30.266;2023-08-01T10:12:25;98638.53;;;28.77
81885;BMP280;71340;55.154;30.266;2023-08-01T10:14:51;98638.78;;;28.57
81885;BMP280;71340;55.154;30.266;2023-08-01T10:17:17;98634.06;;;28.19
81885;BMP280;71340;55.154;30.266;2023-08-01T10:19:43;98624.06;;;28.80
81885;BMP280;71340;55.154;30.266;2023-08-01T10:22:09;98623.34;;;28.63
81885;BMP280;71340;55.154;30.266;2023-08-01T10:24:37;98622.34;;;28.55
81885;BMP280;71340;55.154;30.266;2023-08-01T10:27:29;98633.06;;;28.11
81885;BMP280;71340;55.154;30.266;2023-08-01T10:29:58;98626.72;;;28.36
81885;BMP280;71340;55.154;30.266;2023-08-01T10:32:35;98612.31;;;28.50
81885;BMP280;71340;55.154;30.266;2023-08-01T10:35:02;98602.47;;;28.80
81885;BMP280;71340;55.154;30.266;2023-08-01T10:37:39;98619.28;;;27.98
81885;BMP280;71340;55.154;30.266;2023-08-01T10:40:05;98611.28;;;28.31
81885;BMP280;71340;55.154;30.266;2023-08-01T10:42:41;98606.66;;;28.54
81885;BMP280;71340;55.154;30.266;2023-08-01T10:45:19;98612.03;;;28.92
81885;BMP280;71340;55.154;30.266;2023-08-01T10:47:45;98605.44;;;28.66
81885;BMP280;71340;55.154;30.266;2023-08-01T10:50:14;98606.16;;;28.55
81885;BMP280;71340;55.154;30.266;2023-08-01T10:52:41;98598.09;;;28.83
81885;BMP280;71340;55.154;30.266;2023-08-01T10:55:07;98598.09;;;28.83
81885;BMP280;71340;55.154;30.266;2023-08-01T10:57:35;98596.59;;;28.82
81885;BMP280;71340;55.154;30.266;2023-08-01T11:00:00;98605.94;;;27.67
81885;BMP280;71340;55.154;30.266;2023-08-01T11:02:27;98605.06;;;27.92
81885;BMP280;71340;55.154;30.266;2023-08-01T11:05:00;98602.75;;;28.71
81885;BMP280;71340;55.154;30.266;2023-08-01T11:07:26;98595.13;;;28.86
81885;BMP280;71340;55.154;30.266;2023-08-01T11:10:04;98593.16;;;28.87
81885;BMP280;71340;55.154;30.266;2023-08-01T11:12:33;98595.34;;;28.99
81885;BMP280;71340;55.154;30.266;2023-08-01T11:15:02;98595.25;;;29.38
81885;BMP280;71340;55.154;30.266;2023-08-01T11:17:28;98588.03;;;28.50
81885;BMP280;71340;55.154;30.266;2023-08-01T11:20:04;98591.91;;;28.93
81885;BMP280;71340;55.154;30.266;2023-08-01T11:22:30;98580.19;;;28.74
81885;BMP280;71340;55.154;30.266;2023-08-01T11:25:14;98584.72;;;29.29
81885;BMP280;71340;55.154;30.266;2023-08-01T11:27:40;98583.47;;;29.41
81885;BMP280;71340;55.154;30.266;2023-08-01T11:30:06;98577.16;;;29.22
81885;BMP280;71340;55.154;30.266;2023-08-01T11:32:35;98585.50;;;29.19
81885;BMP280;71340;55.154;30.266;2023-08-01T11:35:02;98582.59;;;28.94
81885;BMP280;71340;55.154;30.266;2023-08-01T11:37:27;98597.25;;;29.27
81885;BMP280;71340;55.154;30.266;2023-08-01T11:39:54;98574.94;;;29.78
81885;BMP280;71340;55.154;30.266;2023-08-01T11:42:20;98587.75;;;30.18
81885;BMP280;71340;55.154;30.266;2023-08-01T11:44:45;98579.00;;;29.95
81885;BMP280;71340;55.154;30.266;2023-08-01T11:47:26;98580.19;;;29.59
81885;BMP280;71340;55.154;30.266;2023-08-01T11:49:51;98580.59;;;29.12
81885;BMP280;71340;55.154;30.266;2023-08-01T11:52:27;98579.06;;;29.84
81885;BMP280;71340;55.154;30.266;2023-08-01T11:54:53;98561.16;;;29.76
81885;BMP280;71340;55.154;30.266;2023-08-01T11:57:20;98568.19;;;30.01
81885;BMP280;71340;55.154;30.266;2023-08-01T11:59:52;98576.94;;;29.09
81885;BMP280;71340;55.154;30.266;2023-08-01T12:02:35;98572.31;;;28.93
81885;BMP280;71340;55.154;30.266;2023-08-01T12:05:01;98577.13;;;29.17
81885;BMP280;71340;55.154;30.266;2023-08-01T12:07:26;98571.66;;;29.39
81885;BMP280;71340;55.154;30.266;2023-08-01T12:10:00;98561.91;;;29.76
81885;BMP280;71340;55.154;30.266;2023-08-01T12:12:27;98567.22;;;30.28
81885;BMP280;71340;55.154;30.266;2023-08-01T12:14:52;98558.50;;;30.70
81885;BMP280;71340;55.154;30.266;2023-08-01T12:17:18;98562.28;;;30.61
81885;BMP280;71340;55.154;30.266;2023-08-01T12:19:44;98555.66;;;29.52
81885;BMP280;71340;55.154;30.266;2023-08-01T12:22:09;98550.78;;;29.91
81885;BMP280;71340;55.154;30.266;2023-08-01T12:24:35;98553.75;;;29.41
81885;BMP280;71340;55.154;30.266;2023-08-01T12:27:06;98557.94;;;29.88
81885;BMP280;71340;55.154;30.266;2023-08-01T12:29:32;98548.94;;;29.75
81885;BMP280;71340;55.154;30.266;2023-08-01T12:31:57;98544.81;;;30.33
81885;BMP280;71340;55.154;30.266;2023-08-01T12:34:23;98546.41;;;30.47
81885;BMP280;71340;55.154;30.266;2023-08-01T12:36:48;98545.75;;;30.89
81885;BMP280;71340;55.154;30.266;2023-08-01T12:39:13;98547.59;;;30.51
81885;BMP280;71340;55.154;30.266;2023-08-01T12:41:39;98554.88;;;30.86
81885;BMP280;71340;55.154;30.266;2023-08-01T12:44:04;98544.66;;;31.40
81885;BMP280;71340;55.154;30.266;2023-08-01T12:46:30;98546.03;;;31.84
81885;BMP280;71340;55.154;30.266;2023-08-01T12:48:55;98533.75;;;32.09
81885;BMP280;71340;55.154;30.266;2023-08-01T12:51:21;98548.34;;;33.15
81885;BMP280;71340;55.154;30.266;2023-08-01T12:53:46;98541.13;;;31.95
81885;BMP280;71340;55.154;30.266;2023-08-01T12:56:11;98543.53;;;32.30
81885;BMP280;71340;55.154;30.266;2023-08-01T12:58:37;98542.81;;;31.29
81885;BMP280;71340;55.154;30.266;2023-08-01T13:01:03;98545.47;;;31.35
81885;BMP280;71340;55.154;30.266;2023-08-01T13:03:29;98545.97;;;30.43
81885;BMP280;71340;55.154;30.266;2023-08-01T13:05:54;98533.47;;;29.70
81885;BMP280;71340;55.154;30.266;2023-08-01T13:08:21;98528.81;;;29.65
81885;BMP280;71340;55.154;30.266;2023-08-01T13:10:48;98527.63;;;28.98
81885;BMP280;71340;55.154;30.266;2023-08-01T13:13:15;98541.38;;;30.03
81885;BMP280;71340;55.154;30.266;2023-08-01T13:15:40;98528.72;;;31.12
81885;BMP280;71340;55.154;30.266;2023-08-01T13:18:06;98528.91;;;31.57
81885;BMP280;71340;55.154;30.266;2023-08-01T13:20:31;98517.03;;;32.75
81885;BMP280;71340;55.154;30.266;2023-08-01T13:22:56;98512.22;;;32.68
81885;BMP280;71340;55.154;30.266;2023-08-01T13:25:22;98508.81;;;33.14
81885;BMP280;71340;55.154;30.266;2023-08-01T13:27:47;98508.34;;;33.77
81885;BMP280;71340;55.154;30.266;2023-08-01T13:30:12;98502.13;;;33.69
81885;BMP280;71340;55.154;30.266;2023-08-01T13:32:40;98510.56;;;33.79
81885;BMP280;71340;55.154;30.266;2023-08-01T13:35:06;98502.31;;;33.92
81885;BMP280;71340;55.154;30.266;2023-08-01T13:37:31;98505.44;;;34.24
81885;BMP280;71340;55.154;30.266;2023-08-01T13:39:57;98495.13;;;34.65
81885;BMP280;71340;55.154;30.266;2023-08-01T13:42:22;98492.75;;;33.78
81885;BMP280;71340;55.154;30.266;2023-08-01T13:44:48;98492.34;;;34.22
81885;BMP280;71340;55.154;30.266;2023-08-01T13:47:13;98486.25;;;35.68
81885;BMP280;71340;55.154;30.266;2023-08-01T13:49:39;98493.50;;;33.78
81885;BMP280;71340;55.154;30.266;2023-08-01T13:52:04;98494.94;;;33.38